sensor_id;sensor_type;location;lat;lon;timestamp;P1;durP1;ratioP1;P2;durP2;ratioP2
85399;SDS011;75813;48.758;9.290;2024-01-30T00:01:13;11.23;;;5.68;;
85399;SDS011;75813;48.758;9.290;2024-01-30T00:03:38;11.18;;;5.50;;
85399;SDS011;75813;48.758;9.290;2024-01-30T00:06:04;10.50;;;6.15;;
85399;SDS011;75813;48.758;9.290;2024-01-30T00:08:29;12.55;;;6.10;;
85399;SDS011;75813;48.758;9.290;2024-01-30T00:10:54;13.60;;;6.22;;
85399;SDS011;75813;48.758;9.290;2024-01-30T00:13:20;13.57;;;6.68;;
85399;SDS011;75813;48.758;9.290;2024-01-30T00:15:45;13.55;;;6.65;;
85399;SDS011;75813;48.758;9.290;2024-01-30T00:18:11;12.63;;;6.53;;
85399;SDS011;75813;48.758;9.290;2024-01-30T00:20:36;14.52;;;6.18;;
85399;SDS011;75813;48.758;9.290;2024-01-30T00:23:02;10.88;;;5.65;;
85399;SDS011;75813;48.758;9.290;2024-01-30T00:25:27;11.07;;;6.63;;
85399;SDS011;75813;48.758;9.290;2024-01-30T00:27:53;13.68;;;6.32;;
85399;SDS011;75813;48.758;9.290;2024-01-30T00:30:18;13.88;;;6.13;;
85399;SDS011;75813;48.758;9.290;2024-01-30T00:32:44;12.02;;;6.10;;
85399;SDS011;75813;48.758;9.290;2024-01-30T00:35:09;13.70;;;6.10;;
85399;SDS011;75813;48.758;9.290;2024-01-30T00:37:35;11.27;;;6.15;;
85399;SDS011;75813;48.758;9.290;2024-01-30T00:40:01;10.35;;;6.00;;
85399;SDS011;75813;48.758;9.290;2024-01-30T00:42:26;11.38;;;6.53;;
85399;SDS011;75813;48.758;9.290;2024-01-30T00:44:52;11.73;;;6.68;;
85399;SDS011;75813;48.758;9.290;2024-01-30T00:47:17;13.77;;;6.32;;
85399;SDS011;75813;48.758;9.290;2024-01-30T00:49:42;13.20;;;7.03;;
85399;SDS011;75813;48.758;9.290;2024-01-30T00:52:08;13.18;;;6.85;;
85399;SDS011;75813;48.758;9.290;2024-01-30T00:54:33;12.40;;;6.82;;
85399;SDS011;75813;48.758;9.290;2024-01-30T00:56:59;12.88;;;7.35;;
85399;SDS011;75813;48.758;9.290;2024-01-30T00:59:24;13.32;;;7.43;;
85399;SDS011;75813;48.758;9.290;2024-01-30T01:01:50;12.75;;;7.25;;
85399;SDS011;75813;48.758;9.290;2024-01-30T01:04:15;19.35;;;8.50;;
85399;SDS011;75813;48.758;9.290;2024-01-30T01:06:42;13.93;;;8.70;;
85399;SDS011;75813;48.758;9.290;2024-01-30T01:09:10;18.88;;;10.57;;
85399;SDS011;75813;48.758;9.290;2024-01-30T01:11:36;14.75;;;9.40;;
85399;SDS011;75813;48.758;9.290;2024-01-30T01:14:03;13.63;;;8.52;;
85399;SDS011;75813;48.758;9.290;2024-01-30T01:16:28;13.88;;;7.63;;
85399;SDS011;75813;48.758;9.290;2024-01-30T01:18:54;12.07;;;7.20;;
85399;SDS011;75813;48.758;9.290;2024-01-30T01:21:19;14.43;;;7.82;;
85399;SDS011;75813;48.758;9.290;2024-01-30T01:23:44;14.32;;;8.73;;
85399;SDS011;75813;48.758;9.290;2024-01-30T01:26:10;12.73;;;8.05;;
85399;SDS011;75813;48.758;9.290;2024-01-30T01:28:35;16.05;;;7.97;;
85399;SDS011;75813;48.758;9.290;2024-01-30T01:31:01;12.52;;;8.52;;
85399;SDS011;75813;48.758;9.290;2024-01-30T01:33:31;14.90;;;8.20;;
85399;SDS011;75813;48.758;9.290;2024-01-30T01:35:58;14.80;;;8.35;;
85399;SDS011;75813;48.758;9.290;2024-01-30T01:38:23;12.82;;;7.93;;
85399;SDS011;75813;48.758;9.290;2024-01-30T01:40:49;12.07;;;7.63;;
85399;SDS011;75813;48.758;9.290;2024-01-30T01:43:14;11.75;;;6.45;;
85399;SDS011;75813;48.758;9.290;2024-01-30T01:45:39;13.50;;;7.20;;
85399;SDS011;75813;48.758;9.290;2024-01-30T01:48:05;11.15;;;6.35;;
85399;SDS011;75813;48.758;9.290;2024-01-30T01:50:31;12.25;;;6.15;;
85399;SDS011;75813;48.758;9.290;2024-01-30T01:52:57;11.10;;;6.70;;
85399;SDS011;75813;48.758;9.290;2024-01-30T01:55:23;11.23;;;6.22;;
85399;SDS011;75813;48.758;9.290;2024-01-30T01:57:52;12.82;;;6.53;;
85399;SDS011;75813;48.758;9.290;2024-01-30T02:00:18;12.75;;;6.38;;
85399;SDS011;75813;48.758;9.290;2024-01-30T02:02:45;12.65;;;7.25;;
85399;SDS011;75813;48.758;9.290;2024-01-30T02:05:11;11.90;;;6.68;;
85399;SDS011;75813;48.758;9.290;2024-01-30T02:07:36;15.93;;;8.05;;
85399;SDS011;75813;48.758;9.290;2024-01-30T02:10:02;11.13;;;5.97;;
85399;SDS011;75813;48.758;9.290;2024-01-30T02:12:28;11.98;;;6.82;;
85399;SDS011;75813;48.758;9.290;2024-01-30T02:14:54;13.55;;;7.55;;
85399;SDS011;75813;48.758;9.290;2024-01-30T02:17:20;11.73;;;6.15;;
85399;SDS011;75813;48.758;9.290;2024-01-30T02:19:45;11.98;;;6.63;;
85399;SDS011;75813;48.758;9.290;2024-01-30T02:22:11;12.68;;;6.93;;
85399;SDS011;75813;48.758;9.290;2024-01-30T02:24:37;12.95;;;7.28;;
85399;SDS011;75813;48.758;9.290;2024-01-30T02:27:03;12.32;;;6.93;;
85399;SDS011;75813;48.758;9.290;2024-01-30T02:29:28;12.80;;;6.25;;
85399;SDS011;75813;48.758;9.290;2024-01-30T02:31:54;10.23;;;6.20;;
85399;SDS011;75813;48.758;9.290;2024-01-30T02:34:19;12.25;;;6.40;;
85399;SDS011;75813;48.758;9.290;2024-01-30T02:36:45;10.35;;;5.10;;
85399;SDS011;75813;48.758;9.290;2024-01-30T02:39:10;9.95;;;6.05;;
85399;SDS011;75813;48.758;9.290;2024-01-30T02:41:36;12.38;;;6.53;;
85399;SDS011;75813;48.758;9.290;2024-01-30T02:44:02;11.65;;;6.13;;
85399;SDS011;75813;48.758;9.290;2024-01-30T02:46:30;10.73;;;5.93;;
85399;SDS011;75813;48.758;9.290;2024-01-30T02:48:55;11.75;;;5.93;;
85399;SDS011;75813;48.758;9.290;2024-01-30T02:51:21;11.10;;;6.30;;
85399;SDS011;75813;48.758;9.290;2024-01-30T02:53:46;11.65;;;6.10;;
85399;SDS011;75813;48.758;9.290;2024-01-30T02:56:12;11.95;;;6.60;;
85399;SDS011;75813;48.758;9.290;2024-01-30T02:58:39;11.60;;;6.32;;
85399;SDS011;75813;48.758;9.290;2024-01-30T03:01:05;11.77;;;7.15;;
85399;SDS011;75813;48.758;9.290;2024-01-30T03:03:31;13.00;;;6.68;;
85399;SDS011;75813;48.758;9.290;2024-01-30T03:05:56;10.93;;;6.03;;
85399;SDS011;75813;48.758;9.290;2024-01-30T03:08:21;10.68;;;5.45;;
85399;SDS011;75813;48.758;9.290;2024-01-30T03:10:47;10.35;;;6.43;;
85399;SDS011;75813;48.758;9.290;2024-01-30T03:13:13;9.68;;;5.75;;
85399;SDS011;75813;48.758;9.290;2024-01-30T03:15:38;8.82;;;5.28;;
85399;SDS011;75813;48.758;9.290;2024-01-30T03:18:03;10.20;;;6.03;;
85399;SDS011;75813;48.758;9.290;2024-01-30T03:20:29;9.05;;;5.32;;
85399;SDS011;75813;48.758;9.290;2024-01-30T03:22:55;11.60;;;5.90;;
85399;SDS011;75813;48.758;9.290;2024-01-30T03:25:20;12.25;;;6.18;;
85399;SDS011;75813;48.758;9.290;2024-01-30T03:27:46;10.57;;;5.78;;
85399;SDS011;75813;48.758;9.290;2024-01-30T03:30:11;11.60;;;5.78;;
85399;SDS011;75813;48.758;9.290;2024-01-30T03:32:37;12.73;;;6.10;;
85399;SDS011;75813;48.758;9.290;2024-01-30T03:35:02;13.38;;;6.35;;
85399;SDS011;75813;48.758;9.290;2024-01-30T03:37:28;10.32;;;5.75;;
85399;SDS011;75813;48.758;9.290;2024-01-30T03:39:53;12.27;;;5.97;;
85399;SDS011;75813;48.758;9.290;2024-01-30T03:42:19;10.10;;;6.07;;
85399;SDS011;75813;48.758;9.290;2024-01-30T03:44:44;10.90;;;6.05;;
85399;SDS011;75813;48.758;9.290;2024-01-30T03:47:09;11.63;;;6.03;;
85399;SDS011;75813;48.758;9.290;2024-01-30T03:49:35;13.20;;;5.93;;
85399;SDS011;75813;48.758;9.290;2024-01-30T03:52:00;11.00;;;6.47;;
85399;SDS011;75813;48.758;9.290;2024-01-30T03:54:25;11.10;;;6.13;;
85399;SDS011;75813;48.758;9.290;2024-01-30T03:56:51;10.48;;;5.65;;
85399;SDS011;75813;48.758;9.290;2024-01-30T03:59:16;11.30;;;6.03;;
85399;SDS011;75813;48.758;9.290;2024-01-30T04:01:47;10.68;;;5.72;;
85399;SDS011;75813;48.758;9.290;2024-01-30T04:04:12;11.82;;;6.85;;
85399;SDS011;75813;48.758;9.290;2024-01-30T04:06:38;9.82;;;5.45;;
85399;SDS011;75813;48.758;9.290;2024-01-30T04:09:03;9.93;;;5.55;;
85399;SDS011;75813;48.758;9.290;2024-01-30T04:11:28;9.88;;;5.78;;
85399;SDS011;75813;48.758;9.290;2024-01-30T04:13:54;9.48;;;5.55;;
85399;SDS011;75813;48.758;9.290;2024-01-30T04:16:22;10.55;;;6.65;;
85399;SDS011;75813;48.758;9.290;2024-01-30T04:18:48;9.90;;;6.30;;
85399;SDS011;75813;48.758;9.290;2024-01-30T04:21:14;22.25;;;6.40;;
85399;SDS011;75813;48.758;9.290;2024-01-30T04:23:40;12.25;;;7.05;;
85399;SDS011;75813;48.758;9.290;2024-01-30T04:26:06;12.13;;;5.93;;
85399;SDS011;75813;48.758;9.290;2024-01-30T04:28:31;9.55;;;5.53;;
85399;SDS011;75813;48.758;9.290;2024-01-30T04:30:56;10.25;;;5.85;;
85399;SDS011;75813;48.758;9.290;2024-01-30T04:33:22;10.27;;;5.72;;
85399;SDS011;75813;48.758;9.290;2024-01-30T04:35:47;10.52;;;5.45;;
85399;SDS011;75813;48.758;9.290;2024-01-30T04:38:12;10.27;;;6.10;;
85399;SDS011;75813;48.758;9.290;2024-01-30T04:40:39;12.90;;;6.03;;
85399;SDS011;75813;48.758;9.290;2024-01-30T04:43:05;11.93;;;5.55;;
85399;SDS011;75813;48.758;9.290;2024-01-30T04:45:30;10.13;;;5.75;;
85399;SDS011;75813;48.758;9.290;2024-01-30T04:47:56;11.20;;;6.00;;
85399;SDS011;75813;48.758;9.290;2024-01-30T04:50:21;8.60;;;5.40;;
85399;SDS011;75813;48.758;9.290;2024-01-30T04:52:46;8.98;;;5.32;;
85399;SDS011;75813;48.758;9.290;2024-01-30T04:55:12;11.57;;;5.82;;
85399;SDS011;75813;48.758;9.290;2024-01-30T04:57:37;10.98;;;5.65;;
85399;SDS011;75813;48.758;9.290;2024-01-30T05:00:02;11.77;;;6.80;;
85399;SDS011;75813;48.758;9.290;2024-01-30T05:02:28;11.48;;;6.00;;
85399;SDS011;75813;48.758;9.290;2024-01-30T05:04:53;11.60;;;6.30;;
85399;SDS011;75813;48.758;9.290;2024-01-30T05:07:19;11.07;;;5.97;;
85399;SDS011;75813;48.758;9.290;2024-01-30T05:09:45;10.50;;;6.20;;
85399;SDS011;75813;48.758;9.290;2024-01-30T05:12:10;11.90;;;6.10;;
85399;SDS011;75813;48.758;9.290;2024-01-30T05:14:36;9.88;;;5.82;;
85399;SDS011;75813;48.758;9.290;2024-01-30T05:17:01;10.70;;;6.20;;
85399;SDS011;75813;48.758;9.290;2024-01-30T05:19:28;11.18;;;7.03;;
85399;SDS011;75813;48.758;9.290;2024-01-30T05:21:54;11.23;;;6.05;;
85399;SDS011;75813;48.758;9.290;2024-01-30T05:24:19;11.25;;;6.22;;
85399;SDS011;75813;48.758;9.290;2024-01-30T05:26:44;12.52;;;6.82;;
85399;SDS011;75813;48.758;9.290;2024-01-30T05:29:10;10.95;;;6.47;;
85399;SDS011;75813;48.758;9.290;2024-01-30T05:31:35;10.60;;;6.30;;
85399;SDS011;75813;48.758;9.290;2024-01-30T05:34:00;12.57;;;6.28;;
85399;SDS011;75813;48.758;9.290;2024-01-30T05:36:26;11.43;;;6.38;;
85399;SDS011;75813;48.758;9.290;2024-01-30T05:38:52;12.25;;;6.60;;
85399;SDS011;75813;48.758;9.290;2024-01-30T05:41:17;12.48;;;6.10;;
85399;SDS011;75813;48.758;9.290;2024-01-30T05:43:43;13.88;;;7.45;;
85399;SDS011;75813;48.758;9.290;2024-01-30T05:46:08;11.80;;;6.93;;
85399;SDS011;75813;48.758;9.290;2024-01-30T05:48:34;13.85;;;7.43;;
85399;SDS011;75813;48.758;9.290;2024-01-30T05:51:00;15.18;;;7.15;;
85399;SDS011;75813;48.758;9.290;2024-01-30T05:53:26;12.13;;;7.00;;
85399;SDS011;75813;48.758;9.290;2024-01-30T05:55:52;14.38;;;7.45;;
85399;SDS011;75813;48.758;9.290;2024-01-30T05:58:17;10.18;;;6.32;;
85399;SDS011;75813;48.758;9.290;2024-01-30T06:00:43;14.43;;;5.90;;
85399;SDS011;75813;48.758;9.290;2024-01-30T06:03:08;11.27;;;7.05;;
85399;SDS011;75813;48.758;9.290;2024-01-30T06:05:34;12.38;;;6.15;;
85399;SDS011;75813;48.758;9.290;2024-01-30T06:07:59;13.95;;;7.20;;
85399;SDS011;75813;48.758;9.290;2024-01-30T06:10:24;11.02;;;6.75;;
85399;SDS011;75813;48.758;9.290;2024-01-30T06:12:50;11.55;;;7.10;;
85399;SDS011;75813;48.758;9.290;2024-01-30T06:15:15;10.25;;;6.07;;
85399;SDS011;75813;48.758;9.290;2024-01-30T06:17:41;9.82;;;5.70;;
85399;SDS011;75813;48.758;9.290;2024-01-30T06:20:06;11.85;;;5.90;;
85399;SDS011;75813;48.758;9.290;2024-01-30T06:22:32;12.05;;;6.55;;
85399;SDS011;75813;48.758;9.290;2024-01-30T06:24:58;11.65;;;6.95;;
85399;SDS011;75813;48.758;9.290;2024-01-30T06:27:23;12.07;;;6.47;;
85399;SDS011;75813;48.758;9.290;2024-01-30T06:29:48;13.20;;;6.40;;
85399;SDS011;75813;48.758;9.290;2024-01-30T06:32:14;10.68;;;5.90;;
85399;SDS011;75813;48.758;9.290;2024-01-30T06:34:40;13.90;;;6.95;;
85399;SDS011;75813;48.758;9.290;2024-01-30T06:37:06;11.45;;;6.63;;
85399;SDS011;75813;48.758;9.290;2024-01-30T06:39:31;10.82;;;5.57;;
85399;SDS011;75813;48.758;9.290;2024-01-30T06:41:57;12.60;;;6.00;;
85399;SDS011;75813;48.758;9.290;2024-01-30T06:44:22;11.50;;;6.68;;
85399;SDS011;75813;48.758;9.290;2024-01-30T06:46:47;12.85;;;6.65;;
85399;SDS011;75813;48.758;9.290;2024-01-30T06:49:13;10.55;;;6.50;;
85399;SDS011;75813;48.758;9.290;2024-01-30T06:51:38;13.23;;;6.75;;
85399;SDS011;75813;48.758;9.290;2024-01-30T06:54:04;12.73;;;6.43;;
85399;SDS011;75813;48.758;9.290;2024-01-30T06:56:29;12.13;;;6.85;;
85399;SDS011;75813;48.758;9.290;2024-01-30T06:58:55;11.00;;;6.18;;
85399;SDS011;75813;48.758;9.290;2024-01-30T07:01:21;11.93;;;6.75;;
85399;SDS011;75813;48.758;9.290;2024-01-30T07:03:52;11.18;;;6.60;;
85399;SDS011;75813;48.758;9.290;2024-01-30T07:06:18;11.88;;;6.63;;
85399;SDS011;75813;48.758;9.290;2024-01-30T07:08:43;12.18;;;7.32;;
85399;SDS011;75813;48.758;9.290;2024-01-30T07:11:08;12.10;;;6.10;;
85399;SDS011;75813;48.758;9.290;2024-01-30T07:13:34;13.38;;;6.70;;
85399;SDS011;75813;48.758;9.290;2024-01-30T07:15:59;18.48;;;7.57;;
85399;SDS011;75813;48.758;9.290;2024-01-30T07:18:25;11.50;;;6.28;;
85399;SDS011;75813;48.758;9.290;2024-01-30T07:20:50;10.90;;;6.45;;
85399;SDS011;75813;48.758;9.290;2024-01-30T07:23:16;11.40;;;6.45;;
85399;SDS011;75813;48.758;9.290;2024-01-30T07:25:46;12.45;;;6.45;;
85399;SDS011;75813;48.758;9.290;2024-01-30T07:28:15;12.48;;;7.10;;
85399;SDS011;75813;48.758;9.290;2024-01-30T07:30:43;13.73;;;7.25;;
85399;SDS011;75813;48.758;9.290;2024-01-30T07:33:09;14.57;;;7.13;;
85399;SDS011;75813;48.758;9.290;2024-01-30T07:35:35;12.02;;;6.88;;
85399;SDS011;75813;48.758;9.290;2024-01-30T07:38:01;12.43;;;6.32;;
85399;SDS011;75813;48.758;9.290;2024-01-30T07:40:26;11.32;;;6.95;;
85399;SDS011;75813;48.758;9.290;2024-01-30T07:42:53;12.93;;;7.13;;
85399;SDS011;75813;48.758;9.290;2024-01-30T07:45:19;12.73;;;7.45;;
85399;SDS011;75813;48.758;9.290;2024-01-30T07:47:49;11.57;;;6.30;;
85399;SDS011;75813;48.758;9.290;2024-01-30T07:50:15;12.32;;;7.18;;
85399;SDS011;75813;48.758;9.290;2024-01-30T07:52:41;11.52;;;6.13;;
85399;SDS011;75813;48.758;9.290;2024-01-30T07:55:07;14.52;;;7.07;;
85399;SDS011;75813;48.758;9.290;2024-01-30T07:57:33;13.57;;;7.78;;
85399;SDS011;75813;48.758;9.290;2024-01-30T07:59:59;12.50;;;7.20;;
85399;SDS011;75813;48.758;9.290;2024-01-30T08:02:25;11.63;;;6.53;;
85399;SDS011;75813;48.758;9.290;2024-01-30T08:04:50;10.02;;;6.05;;
85399;SDS011;75813;48.758;9.290;2024-01-30T08:07:16;11.45;;;6.47;;
85399;SDS011;75813;48.758;9.290;2024-01-30T08:09:42;13.10;;;6.47;;
85399;SDS011;75813;48.758;9.290;2024-01-30T08:12:08;18.27;;;7.10;;
85399;SDS011;75813;48.758;9.290;2024-01-30T08:14:34;10.98;;;6.18;;
85399;SDS011;75813;48.758;9.290;2024-01-30T08:16:59;11.70;;;6.75;;
85399;SDS011;75813;48.758;9.290;2024-01-30T08:19:24;11.35;;;6.47;;
85399;SDS011;75813;48.758;9.290;2024-01-30T08:21:50;11.55;;;6.28;;
85399;SDS011;75813;48.758;9.290;2024-01-30T08:24:15;11.90;;;6.20;;
85399;SDS011;75813;48.758;9.290;2024-01-30T08:26:41;12.90;;;7.05;;
85399;SDS011;75813;48.758;9.290;2024-01-30T08:29:06;12.07;;;8.27;;
85399;SDS011;75813;48.758;9.290;2024-01-30T08:31:31;13.15;;;7.85;;
85399;SDS011;75813;48.758;9.290;2024-01-30T08:33:57;11.85;;;7.68;;
85399;SDS011;75813;48.758;9.290;2024-01-30T08:36:22;15.73;;;9.07;;
85399;SDS011;75813;48.758;9.290;2024-01-30T08:38:47;14.95;;;8.63;;
85399;SDS011;75813;48.758;9.290;2024-01-30T08:41:13;17.33;;;8.55;;
85399;SDS011;75813;48.758;9.290;2024-01-30T08:43:38;12.15;;;7.70;;
85399;SDS011;75813;48.758;9.290;2024-01-30T08:46:04;14.23;;;8.20;;
85399;SDS011;75813;48.758;9.290;2024-01-30T08:48:29;12.35;;;7.82;;
85399;SDS011;75813;48.758;9.290;2024-01-30T08:50:54;14.48;;;7.72;;
85399;SDS011;75813;48.758;9.290;2024-01-30T08:53:20;16.65;;;7.85;;
85399;SDS011;75813;48.758;9.290;2024-01-30T08:55:46;11.05;;;7.40;;
85399;SDS011;75813;48.758;9.290;2024-01-30T08:58:11;13.02;;;7.82;;
85399;SDS011;75813;48.758;9.290;2024-01-30T09:00:37;11.23;;;6.82;;
85399;SDS011;75813;48.758;9.290;2024-01-30T09:03:03;11.52;;;6.45;;
85399;SDS011;75813;48.758;9.290;2024-01-30T09:05:28;11.13;;;6.65;;
85399;SDS011;75813;48.758;9.290;2024-01-30T09:07:54;10.98;;;6.82;;
85399;SDS011;75813;48.758;9.290;2024-01-30T09:10:19;12.50;;;7.03;;
85399;SDS011;75813;48.758;9.290;2024-01-30T09:12:45;13.48;;;6.50;;
85399;SDS011;75813;48.758;9.290;2024-01-30T09:15:11;11.25;;;6.22;;
85399;SDS011;75813;48.758;9.290;2024-01-30T09:17:36;11.43;;;7.18;;
85399;SDS011;75813;48.758;9.290;2024-01-30T09:20:01;11.82;;;6.65;;
85399;SDS011;75813;48.758;9.290;2024-01-30T09:22:27;10.88;;;6.68;;
85399;SDS011;75813;48.758;9.290;2024-01-30T09:24:52;13.82;;;6.95;;
85399;SDS011;75813;48.758;9.290;2024-01-30T09:27:18;12.98;;;7.35;;
85399;SDS011;75813;48.758;9.290;2024-01-30T09:29:43;13.10;;;7.28;;
85399;SDS011;75813;48.758;9.290;2024-01-30T09:32:08;12.32;;;6.50;;
85399;SDS011;75813;48.758;9.290;2024-01-30T09:34:34;12.15;;;7.05;;
85399;SDS011;75813;48.758;9.290;2024-01-30T09:36:59;12.35;;;6.68;;
85399;SDS011;75813;48.758;9.290;2024-01-30T09:39:25;13.98;;;6.95;;
85399;SDS011;75813;48.758;9.290;2024-01-30T09:44:25;12.23;;;6.78;;
85399;SDS011;75813;48.758;9.290;2024-01-30T09:46:52;15.85;;;7.20;;
85399;SDS011;75813;48.758;9.290;2024-01-30T09:49:18;11.75;;;7.00;;
85399;SDS011;75813;48.758;9.290;2024-01-30T09:51:45;13.30;;;7.05;;
85399;SDS011;75813;48.758;9.290;2024-01-30T09:54:11;13.10;;;6.93;;
85399;SDS011;75813;48.758;9.290;2024-01-30T09:56:40;11.02;;;6.47;;
85399;SDS011;75813;48.758;9.290;2024-01-30T09:59:05;10.48;;;6.07;;
85399;SDS011;75813;48.758;9.290;2024-01-30T10:01:30;10.23;;;5.97;;
85399;SDS011;75813;48.758;9.290;2024-01-30T10:03:56;13.05;;;6.93;;
85399;SDS011;75813;48.758;9.290;2024-01-30T10:06:22;11.77;;;6.35;;
85399;SDS011;75813;48.758;9.290;2024-01-30T10:08:50;13.25;;;6.43;;
85399;SDS011;75813;48.758;9.290;2024-01-30T10:11:15;14.52;;;7.20;;
85399;SDS011;75813;48.758;9.290;2024-01-30T10:13:40;11.80;;;6.55;;
85399;SDS011;75813;48.758;9.290;2024-01-30T10:16:06;11.20;;;6.32;;
85399;SDS011;75813;48.758;9.290;2024-01-30T10:18:32;12.73;;;6.00;;
85399;SDS011;75813;48.758;9.290;2024-01-30T10:20:58;12.32;;;6.53;;
85399;SDS011;75813;48.758;9.290;2024-01-30T10:23:24;11.10;;;6.40;;
85399;SDS011;75813;48.758;9.290;2024-01-30T10:25:50;12.45;;;6.68;;
85399;SDS011;75813;48.758;9.290;2024-01-30T10:28:16;19.70;;;6.93;;
85399;SDS011;75813;48.758;9.290;2024-01-30T10:30:42;10.75;;;6.30;;
85399;SDS011;75813;48.758;9.290;2024-01-30T10:33:07;11.18;;;6.93;;
85399;SDS011;75813;48.758;9.290;2024-01-30T10:35:33;11.65;;;6.60;;
85399;SDS011;75813;48.758;9.290;2024-01-30T10:37:58;11.15;;;6.50;;
85399;SDS011;75813;48.758;9.290;2024-01-30T10:40:27;10.80;;;6.38;;
85399;SDS011;75813;48.758;9.290;2024-01-30T10:42:53;10.98;;;6.28;;
85399;SDS011;75813;48.758;9.290;2024-01-30T10:45:20;12.45;;;6.85;;
85399;SDS011;75813;48.758;9.290;2024-01-30T10:47:50;12.00;;;7.03;;
85399;SDS011;75813;48.758;9.290;2024-01-30T10:50:19;14.18;;;7.07;;
85399;SDS011;75813;48.758;9.290;2024-01-30T10:52:45;11.85;;;6.80;;
85399;SDS011;75813;48.758;9.290;2024-01-30T10:55:12;15.35;;;7.40;;
85399;SDS011;75813;48.758;9.290;2024-01-30T10:57:40;11.48;;;6.88;;
85399;SDS011;75813;48.758;9.290;2024-01-30T11:00:06;11.93;;;6.65;;
85399;SDS011;75813;48.758;9.290;2024-01-30T11:02:38;10.48;;;5.88;;
85399;SDS011;75813;48.758;9.290;2024-01-30T11:05:05;12.57;;;6.32;;
85399;SDS011;75813;48.758;9.290;2024-01-30T11:07:31;10.27;;;5.60;;
85399;SDS011;75813;48.758;9.290;2024-01-30T11:12:29;9.23;;;5.18;;
85399;SDS011;75813;48.758;9.290;2024-01-30T11:17:44;10.20;;;5.68;;
85399;SDS011;75813;48.758;9.290;2024-01-30T11:20:10;9.40;;;5.55;;
85399;SDS011;75813;48.758;9.290;2024-01-30T11:22:46;9.60;;;5.30;;
85399;SDS011;75813;48.758;9.290;2024-01-30T11:25:16;11.95;;;4.93;;
85399;SDS011;75813;48.758;9.290;2024-01-30T11:27:43;8.05;;;4.75;;
85399;SDS011;75813;48.758;9.290;2024-01-30T11:30:09;9.85;;;4.80;;
85399;SDS011;75813;48.758;9.290;2024-01-30T11:32:35;9.77;;;4.70;;
85399;SDS011;75813;48.758;9.290;2024-01-30T11:35:02;12.00;;;5.93;;
85399;SDS011;75813;48.758;9.290;2024-01-30T11:37:30;10.32;;;5.53;;
85399;SDS011;75813;48.758;9.290;2024-01-30T11:39:56;9.48;;;5.05;;
85399;SDS011;75813;48.758;9.290;2024-01-30T11:42:23;11.13;;;5.57;;
85399;SDS011;75813;48.758;9.290;2024-01-30T11:44:50;11.07;;;5.53;;
85399;SDS011;75813;48.758;9.290;2024-01-30T11:47:16;11.80;;;5.43;;
85399;SDS011;75813;48.758;9.290;2024-01-30T11:49:42;12.98;;;6.03;;
85399;SDS011;75813;48.758;9.290;2024-01-30T11:52:08;13.13;;;6.32;;
85399;SDS011;75813;48.758;9.290;2024-01-30T11:54:34;18.45;;;6.38;;
85399;SDS011;75813;48.758;9.290;2024-01-30T11:56:59;15.25;;;6.10;;
85399;SDS011;75813;48.758;9.290;2024-01-30T11:59:25;10.68;;;5.07;;
85399;SDS011;75813;48.758;9.290;2024-01-30T12:01:51;11.48;;;5.88;;
85399;SDS011;75813;48.758;9.290;2024-01-30T12:04:17;13.68;;;5.90;;
85399;SDS011;75813;48.758;9.290;2024-01-30T12:06:42;10.38;;;5.50;;
85399;SDS011;75813;48.758;9.290;2024-01-30T12:09:08;9.82;;;5.35;;
85399;SDS011;75813;48.758;9.290;2024-01-30T12:11:47;9.77;;;5.45;;
85399;SDS011;75813;48.758;9.290;2024-01-30T12:14:14;8.75;;;4.88;;
85399;SDS011;75813;48.758;9.290;2024-01-30T12:16:41;11.15;;;4.90;;
85399;SDS011;75813;48.758;9.290;2024-01-30T12:19:06;8.95;;;5.20;;
85399;SDS011;75813;48.758;9.290;2024-01-30T12:21:33;13.55;;;5.45;;
85399;SDS011;75813;48.758;9.290;2024-01-30T12:23:59;11.68;;;5.00;;
85399;SDS011;75813;48.758;9.290;2024-01-30T12:26:25;10.18;;;5.60;;
85399;SDS011;75813;48.758;9.290;2024-01-30T12:28:53;11.10;;;5.53;;
85399;SDS011;75813;48.758;9.290;2024-01-30T12:31:31;9.48;;;5.72;;
85399;SDS011;75813;48.758;9.290;2024-01-30T12:33:59;14.73;;;5.22;;
85399;SDS011;75813;48.758;9.290;2024-01-30T12:36:25;12.32;;;5.45;;
85399;SDS011;75813;48.758;9.290;2024-01-30T12:38:51;10.32;;;5.97;;
85399;SDS011;75813;48.758;9.290;2024-01-30T12:41:17;10.23;;;4.97;;
85399;SDS011;75813;48.758;9.290;2024-01-30T12:43:42;12.70;;;5.93;;
85399;SDS011;75813;48.758;9.290;2024-01-30T12:46:08;11.45;;;5.65;;
85399;SDS011;75813;48.758;9.290;2024-01-30T12:48:33;9.70;;;6.00;;
85399;SDS011;75813;48.758;9.290;2024-01-30T12:50:59;10.98;;;5.38;;
85399;SDS011;75813;48.758;9.290;2024-01-30T12:53:24;8.93;;;4.70;;
85399;SDS011;75813;48.758;9.290;2024-01-30T12:55:50;10.35;;;5.70;;
85399;SDS011;75813;48.758;9.290;2024-01-30T12:58:15;11.52;;;4.63;;
85399;SDS011;75813;48.758;9.290;2024-01-30T13:00:41;10.45;;;5.03;;
85399;SDS011;75813;48.758;9.290;2024-01-30T13:03:08;9.77;;;5.13;;
85399;SDS011;75813;48.758;9.290;2024-01-30T13:05:34;10.68;;;5.10;;
85399;SDS011;75813;48.758;9.290;2024-01-30T13:08:00;10.35;;;4.97;;
85399;SDS011;75813;48.758;9.290;2024-01-30T13:10:26;12.23;;;5.78;;
85399;SDS011;75813;48.758;9.290;2024-01-30T13:12:51;12.90;;;5.22;;
85399;SDS011;75813;48.758;9.290;2024-01-30T13:15:16;8.27;;;4.50;;
85399;SDS011;75813;48.758;9.290;2024-01-30T13:17:42;13.00;;;4.95;;
85399;SDS011;75813;48.758;9.290;2024-01-30T13:20:09;12.48;;;5.30;;
85399;SDS011;75813;48.758;9.290;2024-01-30T13:22:34;11.32;;;5.15;;
85399;SDS011;75813;48.758;9.290;2024-01-30T13:25:00;11.80;;;4.88;;
85399;SDS011;75813;48.758;9.290;2024-01-30T13:27:25;11.02;;;5.15;;
85399;SDS011;75813;48.758;9.290;2024-01-30T13:29:51;8.27;;;4.45;;
85399;SDS011;75813;48.758;9.290;2024-01-30T13:32:16;10.70;;;5.30;;
85399;SDS011;75813;48.758;9.290;2024-01-30T13:34:41;11.00;;;4.75;;
85399;SDS011;75813;48.758;9.290;2024-01-30T13:37:08;12.45;;;5.18;;
85399;SDS011;75813;48.758;9.290;2024-01-30T13:39:33;10.40;;;6.22;;
85399;SDS011;75813;48.758;9.290;2024-01-30T13:41:59;11.63;;;5.25;;
85399;SDS011;75813;48.758;9.290;2024-01-30T13:44:24;12.27;;;5.60;;
85399;SDS011;75813;48.758;9.290;2024-01-30T13:46:50;10.95;;;5.45;;
85399;SDS011;75813;48.758;9.290;2024-01-30T13:49:15;10.30;;;5.97;;
85399;SDS011;75813;48.758;9.290;2024-01-30T13:51:41;9.40;;;5.13;;
85399;SDS011;75813;48.758;9.290;2024-01-30T13:54:07;11.15;;;4.53;;
85399;SDS011;75813;48.758;9.290;2024-01-30T13:56:33;11.55;;;5.10;;
85399;SDS011;75813;48.758;9.290;2024-01-30T13:58:59;11.65;;;5.38;;
85399;SDS011;75813;48.758;9.290;2024-01-30T14:01:26;10.30;;;5.35;;
85399;SDS011;75813;48.758;9.290;2024-01-30T14:03:51;12.13;;;5.47;;
85399;SDS011;75813;48.758;9.290;2024-01-30T14:06:17;13.40;;;5.28;;
85399;SDS011;75813;48.758;9.290;2024-01-30T14:08:42;14.02;;;5.85;;
85399;SDS011;75813;48.758;9.290;2024-01-30T14:11:07;10.82;;;5.68;;
85399;SDS011;75813;48.758;9.290;2024-01-30T14:13:33;11.13;;;5.93;;
85399;SDS011;75813;48.758;9.290;2024-01-30T14:15:59;10.82;;;4.97;;
85399;SDS011;75813;48.758;9.290;2024-01-30T14:18:25;10.20;;;4.60;;
85399;SDS011;75813;48.758;9.290;2024-01-30T14:20:53;10.73;;;4.68;;
85399;SDS011;75813;48.758;9.290;2024-01-30T14:23:19;11.13;;;4.88;;
85399;SDS011;75813;48.758;9.290;2024-01-30T14:25:44;8.85;;;4.78;;
85399;SDS011;75813;48.758;9.290;2024-01-30T14:28:10;11.82;;;5.10;;
85399;SDS011;75813;48.758;9.290;2024-01-30T14:30:35;9.77;;;5.40;;
85399;SDS011;75813;48.758;9.290;2024-01-30T14:33:01;9.40;;;5.05;;
85399;SDS011;75813;48.758;9.290;2024-01-30T14:35:27;10.30;;;5.38;;